»·PEaware :: N41598 KMRY-KBFL

N41598 :: KMRY-KBFL

FLIGHT INFORMATION

Flight Status: Arrived
Operator: Privately registered:
United States
More flights under this callsign
Pilot: Alex C. (14758)
Aircraft: BEECH AIRCRAFT SUPER KING AIR COMMUTER
(BE20)
More flights by this aircraft type
Origin: KMRY Monterey Peninsula
United States
Destination: KBFL Meadows
United States
More flights between these airports :: More routes between these airports
Route: +MRY4 MRY SERFR AVE EHF
File this flight plan on PilotEdge
Remarks: IFR KMRY / KBFL 17,000
Altitude:
(Current/Filed)
17,000ft
Speed:
(Current/Filed)
220kts
Departed: 01-Oct-17 10:31 AM
Arrived: 01-Oct-17 11:49 AM
Distance/Time
Traveled:
152nm/1:18
Distance/Time
To Go:
Arrived

Flight Plot

Page will automatically refresh every two minutes.

Flight plan parsing failed; only flown route is shown


Map Options




Map Legend


Flown Route
Filed Route
Departure Airport
Arrival Airport
Navaid (VOR, NDB)
Fix

Horizontal Profiles

Position Reports

Time Latitude Longitude Heading Altitude Ground
Speed
01-Oct-17 10:19 36.589359 -121.858094 305 258ft 0kts
01-Oct-17 10:20 36.589359 -121.858094 305 258ft 0kts
01-Oct-17 10:21 36.589359 -121.858094 305 258ft 0kts
01-Oct-17 10:22 36.589359 -121.858094 305 258ft 0kts
01-Oct-17 10:23 36.589359 -121.858094 305 258ft 0kts
01-Oct-17 10:24 36.589359 -121.858094 305 258ft 0kts
01-Oct-17 10:25 36.589359 -121.858094 305 258ft 0kts
01-Oct-17 10:26 36.589359 -121.858094 305 258ft 0kts
01-Oct-17 10:27 36.589359 -121.858094 305 258ft 0kts
01-Oct-17 10:28 36.589401 -121.858387 243 258ft 10kts
01-Oct-17 10:29 36.589122 -121.853188 112 259ft 16kts
01-Oct-17 10:30 36.584362 -121.839476 112 259ft 17kts
01-Oct-17 10:31 36.583473 -121.836598 66 259ft 0kts
01-Oct-17 10:32 36.583473 -121.836598 66 259ft 0kts
01-Oct-17 10:33 36.583473 -121.836598 66 259ft 0kts
01-Oct-17 10:34 36.583506 -121.836516 58 259ft 6kts
01-Oct-17 10:35 36.585126 -121.838816 292 259ft 76kts
01-Oct-17 10:36 36.592511 -121.860681 291 535ft 162kts
01-Oct-17 10:37 36.600857 -121.890036 290 1541ft 167kts
01-Oct-17 10:38 36.620565 -121.907494 339 2691ft 158kts
01-Oct-17 10:39 36.645501 -121.917949 0 3965ft 158kts
01-Oct-17 10:40 36.657545 -121.891895 104 5086ft 186kts
01-Oct-17 10:41 36.644975 -121.862074 134 5986ft 197kts
01-Oct-17 10:42 36.621543 -121.840343 144 6916ft 203kts
01-Oct-17 10:43 36.598786 -121.820778 145 7880ft 202kts
01-Oct-17 10:44 36.577437 -121.802528 145 8838ft 200kts
01-Oct-17 10:45 36.557690 -121.785590 144 9752ft 196kts
01-Oct-17 10:46 36.538996 -121.769473 145 10574ft 195kts
01-Oct-17 10:47 36.514445 -121.748132 145 11633ft 196kts
01-Oct-17 10:48 36.495963 -121.731911 146 12350ft 201kts
01-Oct-17 10:49 36.477348 -121.715677 146 13067ft 205kts
01-Oct-17 10:50 36.457753 -121.698683 147 13799ft 209kts
01-Oct-17 10:51 36.436189 -121.680068 147 14602ft 212kts
01-Oct-17 10:52 36.411970 -121.659221 148 15479ft 215kts
01-Oct-17 10:53 36.384734 -121.635768 148 16433ft 218kts
01-Oct-17 10:54 36.355269 -121.610462 148 17002ft 242kts
01-Oct-17 10:55 36.319721 -121.580134 147 17031ft 277kts
01-Oct-17 10:56 36.279569 -121.545650 147 17017ft 295kts
01-Oct-17 10:57 36.242646 -121.513844 146 16994ft 304kts
01-Oct-17 10:58 36.202794 -121.479706 146 17014ft 304kts
01-Oct-17 10:59 36.160241 -121.443016 146 17014ft 304kts
01-Oct-17 11:00 36.123701 -121.411587 146 17014ft 304kts
01-Oct-17 11:01 36.086277 -121.379488 146 17015ft 304kts
01-Oct-17 11:02 36.058898 -121.331621 110 16999ft 302kts
01-Oct-17 11:03 36.039797 -121.269669 107 16985ft 303kts
01-Oct-17 11:04 36.021457 -121.206819 107 16983ft 305kts
01-Oct-17 11:05 36.004721 -121.149827 107 16984ft 307kts
01-Oct-17 11:06 35.988278 -121.094438 107 16985ft 307kts
01-Oct-17 11:07 35.970069 -121.033507 107 16985ft 308kts
01-Oct-17 11:08 35.950193 -120.967309 107 16985ft 308kts
01-Oct-17 11:09 35.930327 -120.901341 107 16986ft 309kts
01-Oct-17 11:10 35.910191 -120.834613 107 16986ft 309kts
01-Oct-17 11:11 35.890838 -120.770630 107 16980ft 309kts
01-Oct-17 11:12 35.871767 -120.707649 107 16980ft 308kts
01-Oct-17 11:13 35.853018 -120.645955 107 16981ft 308kts
01-Oct-17 11:14 35.835464 -120.588331 107 16982ft 309kts
01-Oct-17 11:15 35.817725 -120.530217 107 16982ft 309kts
01-Oct-17 11:16 35.804285 -120.486261 107 16983ft 309kts
01-Oct-17 11:17 35.785120 -120.423631 107 16694ft 312kts
01-Oct-17 11:18 35.766645 -120.363462 107 16339ft 309kts
01-Oct-17 11:19 35.749921 -120.309052 108 15999ft 308kts
01-Oct-17 11:20 35.734355 -120.258445 108 15684ft 304kts
01-Oct-17 11:21 35.718387 -120.206698 108 15350ft 301kts
01-Oct-17 11:22 35.702602 -120.155739 108 15022ft 299kts
01-Oct-17 11:23 35.682456 -120.090850 108 14605ft 297kts
01-Oct-17 11:24 35.662729 -120.027361 108 14199ft 296kts
01-Oct-17 11:25 35.644837 -119.964297 99 13994ft 294kts
01-Oct-17 11:26 35.633786 -119.903738 99 13981ft 294kts
01-Oct-17 11:27 35.623258 -119.844935 99 13972ft 294kts
01-Oct-17 11:28 35.610487 -119.774190 99 13972ft 293kts
01-Oct-17 11:29 35.598186 -119.706508 99 13973ft 294kts
01-Oct-17 11:30 35.586004 -119.639817 99 13974ft 294kts
01-Oct-17 11:31 35.573035 -119.570710 99 13974ft 295kts
01-Oct-17 11:32 35.560272 -119.501609 99 13973ft 293kts
01-Oct-17 11:33 35.548841 -119.440084 98 13614ft 261kts
01-Oct-17 11:34 35.541742 -119.402620 97 13154ft 219kts
01-Oct-17 11:35 35.533627 -119.356399 99 11799ft 226kts
01-Oct-17 11:36 35.524216 -119.307243 99 11223ft 226kts
01-Oct-17 11:37 35.510791 -119.262803 109 10857ft 221kts
01-Oct-17 11:38 35.496757 -119.220183 110 10310ft 220kts
01-Oct-17 11:39 35.472761 -119.185991 136 9670ft 213kts
01-Oct-17 11:40 35.447371 -119.161137 144 8688ft 210kts
01-Oct-17 11:41 35.424476 -119.140567 146 7652ft 209kts
01-Oct-17 11:42 35.403973 -119.121218 141 6966ft 189kts
01-Oct-17 11:43 35.386216 -119.102004 141 6299ft 179kts
01-Oct-17 11:44 35.367097 -119.082844 146 5547ft 174kts
01-Oct-17 11:45 35.349368 -119.065610 133 4900ft 170kts
01-Oct-17 11:46 35.342779 -119.040406 80 4212ft 157kts
01-Oct-17 11:47 35.354358 -119.022209 14 3425ft 143kts
01-Oct-17 11:48 35.373365 -119.016082 7 2709ft 137kts
01-Oct-17 11:49 35.391442 -119.011269 3 1819ft 127kts
01-Oct-17 11:50 35.405248 -119.020718 308 1249ft 112kts
01-Oct-17 11:51 35.416982 -119.035457 311 944ft 115kts
01-Oct-17 11:52 35.429840 -119.051321 312 605ft 116kts
01-Oct-17 11:53 35.439440 -119.062624 346 510ft 28kts
01-Oct-17 11:54 35.440336 -119.061727 138 510ft 31kts
01-Oct-17 11:55 35.437384 -119.057635 71 510ft 23kts
01-Oct-17 11:56 35.437530 -119.055045 135 510ft 0kts
01-Oct-17 11:57 35.437530 -119.055046 135 510ft 0kts
01-Oct-17 11:58 35.437530 -119.055046 135 510ft 0kts
01-Oct-17 11:59 35.437530 -119.055046 135 510ft 0kts
01-Oct-17 12:00 35.437530 -119.055046 135 510ft 0kts
01-Oct-17 12:01 35.437530 -119.055046 135 510ft 0kts
01-Oct-17 12:02 35.437530 -119.055046 135 510ft 0kts

Navigation Log

Ident Type
Flight plan parsing failed, navigation log unavailable